sensor_id;sensor_type;location;lat;lon;timestamp;P1;durP1;ratioP1;P2;durP2;ratioP2
8480;SDS011;4277;51.354;6.740;2023-06-22T00:00:49;3.33;;;2.72;;
8480;SDS011;4277;51.354;6.740;2023-06-22T00:03:17;3.42;;;2.72;;
8480;SDS011;4277;51.354;6.740;2023-06-22T00:05:43;3.50;;;3.00;;
8480;SDS011;4277;51.354;6.740;2023-06-22T00:08:09;3.55;;;3.03;;
8480;SDS011;4277;51.354;6.740;2023-06-22T00:10:35;4.88;;;3.83;;
8480;SDS011;4277;51.354;6.740;2023-06-22T00:13:01;4.95;;;2.92;;
8480;SDS011;4277;51.354;6.740;2023-06-22T00:15:27;5.07;;;3.35;;
8480;SDS011;4277;51.354;6.740;2023-06-22T00:17:53;5.10;;;3.10;;
8480;SDS011;4277;51.354;6.740;2023-06-22T00:20:19;3.50;;;3.03;;
8480;SDS011;4277;51.354;6.740;2023-06-22T00:22:45;4.80;;;4.00;;
8480;SDS011;4277;51.354;6.740;2023-06-22T00:25:12;5.15;;;3.60;;
8480;SDS011;4277;51.354;6.740;2023-06-22T00:27:38;3.65;;;3.15;;
8480;SDS011;4277;51.354;6.740;2023-06-22T00:30:04;5.00;;;3.50;;
8480;SDS011;4277;51.354;6.740;2023-06-22T00:32:31;6.32;;;3.55;;
8480;SDS011;4277;51.354;6.740;2023-06-22T00:34:56;4.70;;;3.80;;
8480;SDS011;4277;51.354;6.740;2023-06-22T00:37:22;5.82;;;3.38;;
8480;SDS011;4277;51.354;6.740;2023-06-22T00:39:50;5.70;;;3.92;;
8480;SDS011;4277;51.354;6.740;2023-06-22T00:42:16;3.80;;;3.05;;
8480;SDS011;4277;51.354;6.740;2023-06-22T00:44:43;4.85;;;3.40;;
8480;SDS011;4277;51.354;6.740;2023-06-22T00:47:10;5.30;;;3.78;;
8480;SDS011;4277;51.354;6.740;2023-06-22T00:49:37;4.95;;;3.70;;
8480;SDS011;4277;51.354;6.740;2023-06-22T00:52:04;5.70;;;4.40;;
8480;SDS011;4277;51.354;6.740;2023-06-22T00:54:34;5.13;;;3.60;;
8480;SDS011;4277;51.354;6.740;2023-06-22T00:57:01;5.47;;;3.85;;
8480;SDS011;4277;51.354;6.740;2023-06-22T00:59:26;4.93;;;3.35;;
8480;SDS011;4277;51.354;6.740;2023-06-22T01:01:52;6.45;;;3.70;;
8480;SDS011;4277;51.354;6.740;2023-06-22T01:04:18;4.20;;;3.80;;
8480;SDS011;4277;51.354;6.740;2023-06-22T01:06:54;5.07;;;3.90;;
8480;SDS011;4277;51.354;6.740;2023-06-22T01:09:25;5.93;;;3.97;;
8480;SDS011;4277;51.354;6.740;2023-06-22T01:11:54;4.40;;;4.00;;
8480;SDS011;4277;51.354;6.740;2023-06-22T01:14:24;5.78;;;4.43;;
8480;SDS011;4277;51.354;6.740;2023-06-22T01:16:52;5.32;;;4.05;;
8480;SDS011;4277;51.354;6.740;2023-06-22T01:19:35;4.50;;;3.67;;
8480;SDS011;4277;51.354;6.740;2023-06-22T01:22:03;4.72;;;3.78;;
8480;SDS011;4277;51.354;6.740;2023-06-22T01:24:32;5.63;;;4.00;;
8480;SDS011;4277;51.354;6.740;2023-06-22T01:29:46;5.88;;;3.80;;
8480;SDS011;4277;51.354;6.740;2023-06-22T01:32:13;5.70;;;3.90;;
8480;SDS011;4277;51.354;6.740;2023-06-22T01:34:39;5.78;;;4.10;;
8480;SDS011;4277;51.354;6.740;2023-06-22T01:37:06;6.25;;;3.90;;
8480;SDS011;4277;51.354;6.740;2023-06-22T01:39:32;5.40;;;3.90;;
8480;SDS011;4277;51.354;6.740;2023-06-22T01:41:58;4.88;;;4.15;;
8480;SDS011;4277;51.354;6.740;2023-06-22T01:44:24;5.10;;;3.90;;
8480;SDS011;4277;51.354;6.740;2023-06-22T01:46:51;5.35;;;4.22;;
8480;SDS011;4277;51.354;6.740;2023-06-22T01:49:17;6.45;;;4.65;;
8480;SDS011;4277;51.354;6.740;2023-06-22T01:51:43;5.80;;;3.92;;
8480;SDS011;4277;51.354;6.740;2023-06-22T01:54:09;5.22;;;4.15;;
8480;SDS011;4277;51.354;6.740;2023-06-22T01:56:35;5.07;;;4.50;;
8480;SDS011;4277;51.354;6.740;2023-06-22T01:59:09;5.35;;;4.40;;
8480;SDS011;4277;51.354;6.740;2023-06-22T02:01:39;7.18;;;4.43;;
8480;SDS011;4277;51.354;6.740;2023-06-22T02:04:06;4.45;;;3.85;;
8480;SDS011;4277;51.354;6.740;2023-06-22T02:06:36;8.88;;;4.10;;
8480;SDS011;4277;51.354;6.740;2023-06-22T02:09:03;5.97;;;4.05;;
8480;SDS011;4277;51.354;6.740;2023-06-22T02:11:30;5.60;;;4.55;;
8480;SDS011;4277;51.354;6.740;2023-06-22T02:13:57;4.57;;;4.10;;
8480;SDS011;4277;51.354;6.740;2023-06-22T02:16:23;6.38;;;4.28;;
8480;SDS011;4277;51.354;6.740;2023-06-22T02:18:49;5.78;;;4.20;;
8480;SDS011;4277;51.354;6.740;2023-06-22T02:21:16;5.05;;;4.55;;
8480;SDS011;4277;51.354;6.740;2023-06-22T02:23:42;8.30;;;5.22;;
8480;SDS011;4277;51.354;6.740;2023-06-22T02:26:08;9.23;;;4.90;;
8480;SDS011;4277;51.354;6.740;2023-06-22T02:28:34;6.38;;;5.00;;
8480;SDS011;4277;51.354;6.740;2023-06-22T02:31:00;7.20;;;4.97;;
8480;SDS011;4277;51.354;6.740;2023-06-22T02:33:26;4.97;;;4.50;;
8480;SDS011;4277;51.354;6.740;2023-06-22T02:35:55;7.32;;;4.50;;
8480;SDS011;4277;51.354;6.740;2023-06-22T02:38:21;5.82;;;4.65;;
8480;SDS011;4277;51.354;6.740;2023-06-22T02:40:49;6.38;;;5.00;;
8480;SDS011;4277;51.354;6.740;2023-06-22T02:43:15;6.03;;;4.70;;
8480;SDS011;4277;51.354;6.740;2023-06-22T02:45:41;6.75;;;5.10;;
8480;SDS011;4277;51.354;6.740;2023-06-22T02:48:07;6.75;;;5.40;;
8480;SDS011;4277;51.354;6.740;2023-06-22T02:50:33;7.82;;;5.20;;
8480;SDS011;4277;51.354;6.740;2023-06-22T02:52:59;5.50;;;4.43;;
8480;SDS011;4277;51.354;6.740;2023-06-22T02:55:25;7.53;;;5.50;;
8480;SDS011;4277;51.354;6.740;2023-06-22T02:57:51;6.57;;;5.03;;
8480;SDS011;4277;51.354;6.740;2023-06-22T03:00:18;6.63;;;5.18;;
8480;SDS011;4277;51.354;6.740;2023-06-22T03:02:44;7.70;;;5.90;;
8480;SDS011;4277;51.354;6.740;2023-06-22T03:05:11;5.90;;;5.38;;
8480;SDS011;4277;51.354;6.740;2023-06-22T03:07:38;9.13;;;5.22;;
8480;SDS011;4277;51.354;6.740;2023-06-22T03:10:04;7.32;;;5.55;;
8480;SDS011;4277;51.354;6.740;2023-06-22T03:12:30;7.13;;;5.90;;
8480;SDS011;4277;51.354;6.740;2023-06-22T03:14:56;6.32;;;5.20;;
8480;SDS011;4277;51.354;6.740;2023-06-22T03:17:23;7.43;;;5.25;;
8480;SDS011;4277;51.354;6.740;2023-06-22T03:19:49;8.27;;;5.80;;
8480;SDS011;4277;51.354;6.740;2023-06-22T03:22:15;7.68;;;5.82;;
8480;SDS011;4277;51.354;6.740;2023-06-22T03:24:40;6.05;;;5.38;;
8480;SDS011;4277;51.354;6.740;2023-06-22T03:27:06;6.88;;;5.57;;
8480;SDS011;4277;51.354;6.740;2023-06-22T03:29:32;7.13;;;5.60;;
8480;SDS011;4277;51.354;6.740;2023-06-22T03:31:59;9.65;;;5.30;;
8480;SDS011;4277;51.354;6.740;2023-06-22T03:34:25;6.25;;;5.20;;
8480;SDS011;4277;51.354;6.740;2023-06-22T03:36:51;8.40;;;5.38;;
8480;SDS011;4277;51.354;6.740;2023-06-22T03:39:17;9.48;;;5.78;;
8480;SDS011;4277;51.354;6.740;2023-06-22T03:41:43;9.02;;;7.65;;
8480;SDS011;4277;51.354;6.740;2023-06-22T03:44:09;7.13;;;5.38;;
8480;SDS011;4277;51.354;6.740;2023-06-22T03:46:37;10.77;;;5.68;;
8480;SDS011;4277;51.354;6.740;2023-06-22T03:49:03;7.38;;;6.22;;
8480;SDS011;4277;51.354;6.740;2023-06-22T03:51:30;8.82;;;6.53;;
8480;SDS011;4277;51.354;6.740;2023-06-22T03:53:56;7.90;;;6.55;;
8480;SDS011;4277;51.354;6.740;2023-06-22T03:56:22;6.63;;;5.95;;
8480;SDS011;4277;51.354;6.740;2023-06-22T03:58:48;9.40;;;6.70;;
8480;SDS011;4277;51.354;6.740;2023-06-22T04:01:14;7.28;;;6.53;;
8480;SDS011;4277;51.354;6.740;2023-06-22T04:03:42;8.02;;;6.57;;
8480;SDS011;4277;51.354;6.740;2023-06-22T04:06:08;8.38;;;7.28;;
8480;SDS011;4277;51.354;6.740;2023-06-22T04:08:34;8.20;;;7.15;;
8480;SDS011;4277;51.354;6.740;2023-06-22T04:11:00;7.70;;;6.90;;
8480;SDS011;4277;51.354;6.740;2023-06-22T04:13:26;9.48;;;6.70;;
8480;SDS011;4277;51.354;6.740;2023-06-22T04:15:52;8.00;;;6.75;;
8480;SDS011;4277;51.354;6.740;2023-06-22T04:18:18;9.10;;;8.10;;
8480;SDS011;4277;51.354;6.740;2023-06-22T04:20:44;8.88;;;6.50;;
8480;SDS011;4277;51.354;6.740;2023-06-22T04:23:11;7.70;;;6.93;;
8480;SDS011;4277;51.354;6.740;2023-06-22T04:25:37;10.68;;;8.07;;
8480;SDS011;4277;51.354;6.740;2023-06-22T04:28:03;15.48;;;8.13;;
8480;SDS011;4277;51.354;6.740;2023-06-22T04:30:29;8.43;;;7.57;;
8480;SDS011;4277;51.354;6.740;2023-06-22T04:32:56;9.20;;;8.20;;
8480;SDS011;4277;51.354;6.740;2023-06-22T04:35:25;6.78;;;6.03;;
8480;SDS011;4277;51.354;6.740;2023-06-22T04:37:53;8.75;;;7.10;;
8480;SDS011;4277;51.354;6.740;2023-06-22T04:40:20;9.90;;;8.27;;
8480;SDS011;4277;51.354;6.740;2023-06-22T04:42:46;9.20;;;7.13;;
8480;SDS011;4277;51.354;6.740;2023-06-22T04:45:18;11.35;;;8.40;;
8480;SDS011;4277;51.354;6.740;2023-06-22T04:47:44;11.85;;;8.88;;
8480;SDS011;4277;51.354;6.740;2023-06-22T04:50:10;11.57;;;8.50;;
8480;SDS011;4277;51.354;6.740;2023-06-22T04:52:36;11.32;;;9.13;;
8480;SDS011;4277;51.354;6.740;2023-06-22T04:55:02;11.50;;;8.63;;
8480;SDS011;4277;51.354;6.740;2023-06-22T04:57:28;12.63;;;9.40;;
8480;SDS011;4277;51.354;6.740;2023-06-22T05:00:01;12.98;;;9.40;;
8480;SDS011;4277;51.354;6.740;2023-06-22T05:02:40;10.90;;;9.57;;
8480;SDS011;4277;51.354;6.740;2023-06-22T05:05:06;13.07;;;10.40;;
8480;SDS011;4277;51.354;6.740;2023-06-22T05:07:33;12.77;;;9.60;;
8480;SDS011;4277;51.354;6.740;2023-06-22T05:10:00;12.77;;;10.20;;
8480;SDS011;4277;51.354;6.740;2023-06-22T05:12:27;11.23;;;10.13;;
8480;SDS011;4277;51.354;6.740;2023-06-22T05:14:53;11.70;;;10.15;;
8480;SDS011;4277;51.354;6.740;2023-06-22T05:17:19;14.15;;;10.27;;
8480;SDS011;4277;51.354;6.740;2023-06-22T05:19:44;11.40;;;10.23;;
8480;SDS011;4277;51.354;6.740;2023-06-22T05:22:14;11.25;;;10.02;;
8480;SDS011;4277;51.354;6.740;2023-06-22T05:24:40;11.45;;;10.35;;
8480;SDS011;4277;51.354;6.740;2023-06-22T05:27:06;12.43;;;11.13;;
8480;SDS011;4277;51.354;6.740;2023-06-22T05:29:32;10.32;;;9.07;;
8480;SDS011;4277;51.354;6.740;2023-06-22T05:31:57;11.73;;;10.57;;
8480;SDS011;4277;51.354;6.740;2023-06-22T05:34:23;11.88;;;10.68;;
8480;SDS011;4277;51.354;6.740;2023-06-22T05:36:48;11.77;;;10.65;;
8480;SDS011;4277;51.354;6.740;2023-06-22T05:39:14;11.70;;;10.50;;
8480;SDS011;4277;51.354;6.740;2023-06-22T05:41:40;11.60;;;10.25;;
8480;SDS011;4277;51.354;6.740;2023-06-22T05:44:06;14.63;;;11.70;;
8480;SDS011;4277;51.354;6.740;2023-06-22T05:46:32;12.88;;;10.77;;
8480;SDS011;4277;51.354;6.740;2023-06-22T05:48:57;11.98;;;10.68;;
8480;SDS011;4277;51.354;6.740;2023-06-22T05:51:23;11.30;;;10.07;;
8480;SDS011;4277;51.354;6.740;2023-06-22T05:53:48;12.38;;;11.27;;
8480;SDS011;4277;51.354;6.740;2023-06-22T05:56:17;12.25;;;10.95;;
8480;SDS011;4277;51.354;6.740;2023-06-22T05:58:43;11.27;;;10.18;;
8480;SDS011;4277;51.354;6.740;2023-06-22T06:01:09;13.10;;;11.30;;
8480;SDS011;4277;51.354;6.740;2023-06-22T06:03:35;13.10;;;10.35;;
8480;SDS011;4277;51.354;6.740;2023-06-22T06:06:06;15.23;;;10.90;;
8480;SDS011;4277;51.354;6.740;2023-06-22T06:08:32;11.55;;;10.15;;
8480;SDS011;4277;51.354;6.740;2023-06-22T06:10:57;12.55;;;10.95;;
8480;SDS011;4277;51.354;6.740;2023-06-22T06:13:23;13.40;;;10.38;;
8480;SDS011;4277;51.354;6.740;2023-06-22T06:15:49;11.80;;;10.60;;
8480;SDS011;4277;51.354;6.740;2023-06-22T06:18:16;12.93;;;10.80;;
8480;SDS011;4277;51.354;6.740;2023-06-22T06:20:42;13.10;;;11.65;;
8480;SDS011;4277;51.354;6.740;2023-06-22T06:23:07;11.52;;;10.32;;
8480;SDS011;4277;51.354;6.740;2023-06-22T06:25:33;12.25;;;10.98;;
8480;SDS011;4277;51.354;6.740;2023-06-22T06:27:59;12.77;;;10.75;;
8480;SDS011;4277;51.354;6.740;2023-06-22T06:30:24;12.80;;;11.18;;
8480;SDS011;4277;51.354;6.740;2023-06-22T06:32:50;11.27;;;10.18;;
8480;SDS011;4277;51.354;6.740;2023-06-22T06:35:15;12.35;;;10.07;;
8480;SDS011;4277;51.354;6.740;2023-06-22T06:37:42;13.23;;;10.40;;
8480;SDS011;4277;51.354;6.740;2023-06-22T06:40:10;14.23;;;10.88;;
8480;SDS011;4277;51.354;6.740;2023-06-22T06:42:37;13.50;;;10.15;;
8480;SDS011;4277;51.354;6.740;2023-06-22T06:45:05;13.20;;;10.63;;
8480;SDS011;4277;51.354;6.740;2023-06-22T06:47:31;12.32;;;11.07;;
8480;SDS011;4277;51.354;6.740;2023-06-22T06:49:57;15.25;;;10.80;;
8480;SDS011;4277;51.354;6.740;2023-06-22T06:52:22;13.43;;;11.30;;
8480;SDS011;4277;51.354;6.740;2023-06-22T06:54:48;13.93;;;11.93;;
8480;SDS011;4277;51.354;6.740;2023-06-22T06:57:14;15.88;;;11.35;;
8480;SDS011;4277;51.354;6.740;2023-06-22T06:59:40;13.27;;;11.75;;
8480;SDS011;4277;51.354;6.740;2023-06-22T07:02:06;12.88;;;11.57;;
8480;SDS011;4277;51.354;6.740;2023-06-22T07:04:32;12.80;;;11.05;;
8480;SDS011;4277;51.354;6.740;2023-06-22T07:06:58;13.45;;;12.13;;
8480;SDS011;4277;51.354;6.740;2023-06-22T07:09:26;14.65;;;12.98;;
8480;SDS011;4277;51.354;6.740;2023-06-22T07:11:51;13.93;;;12.43;;
8480;SDS011;4277;51.354;6.740;2023-06-22T07:14:17;17.20;;;13.35;;
8480;SDS011;4277;51.354;6.740;2023-06-22T07:16:42;14.20;;;12.80;;
8480;SDS011;4277;51.354;6.740;2023-06-22T07:19:08;15.18;;;13.68;;
8480;SDS011;4277;51.354;6.740;2023-06-22T07:21:35;15.20;;;13.57;;
8480;SDS011;4277;51.354;6.740;2023-06-22T07:24:01;14.68;;;13.18;;
8480;SDS011;4277;51.354;6.740;2023-06-22T07:26:26;14.93;;;13.38;;
8480;SDS011;4277;51.354;6.740;2023-06-22T07:28:52;17.80;;;15.48;;
8480;SDS011;4277;51.354;6.740;2023-06-22T07:31:17;15.02;;;13.52;;
8480;SDS011;4277;51.354;6.740;2023-06-22T07:33:43;18.00;;;16.10;;
8480;SDS011;4277;51.354;6.740;2023-06-22T07:36:08;16.98;;;15.27;;
8480;SDS011;4277;51.354;6.740;2023-06-22T07:38:34;17.83;;;14.35;;
8480;SDS011;4277;51.354;6.740;2023-06-22T07:41:00;16.90;;;15.20;;
8480;SDS011;4277;51.354;6.740;2023-06-22T07:43:26;17.45;;;15.65;;
8480;SDS011;4277;51.354;6.740;2023-06-22T07:45:51;20.27;;;14.98;;
8480;SDS011;4277;51.354;6.740;2023-06-22T07:48:19;18.95;;;16.27;;
8480;SDS011;4277;51.354;6.740;2023-06-22T07:50:46;17.35;;;15.63;;
8480;SDS011;4277;51.354;6.740;2023-06-22T07:53:11;17.25;;;15.45;;
8480;SDS011;4277;51.354;6.740;2023-06-22T07:55:37;19.60;;;17.60;;
8480;SDS011;4277;51.354;6.740;2023-06-22T07:58:02;15.90;;;14.05;;
8480;SDS011;4277;51.354;6.740;2023-06-22T08:00:28;17.67;;;15.80;;
8480;SDS011;4277;51.354;6.740;2023-06-22T08:02:53;18.63;;;16.67;;
8480;SDS011;4277;51.354;6.740;2023-06-22T08:05:19;18.92;;;16.80;;
8480;SDS011;4277;51.354;6.740;2023-06-22T08:07:44;19.23;;;16.33;;
8480;SDS011;4277;51.354;6.740;2023-06-22T08:10:11;17.95;;;16.25;;
8480;SDS011;4277;51.354;6.740;2023-06-22T08:12:36;16.90;;;15.20;;
8480;SDS011;4277;51.354;6.740;2023-06-22T08:15:02;16.00;;;14.48;;
8480;SDS011;4277;51.354;6.740;2023-06-22T08:17:28;18.30;;;16.50;;
8480;SDS011;4277;51.354;6.740;2023-06-22T08:19:54;18.35;;;16.55;;
8480;SDS011;4277;51.354;6.740;2023-06-22T08:22:19;16.58;;;14.98;;
8480;SDS011;4277;51.354;6.740;2023-06-22T08:24:45;18.52;;;16.67;;
8480;SDS011;4277;51.354;6.740;2023-06-22T08:27:10;16.17;;;14.57;;
8480;SDS011;4277;51.354;6.740;2023-06-22T08:29:46;16.73;;;15.05;;
8480;SDS011;4277;51.354;6.740;2023-06-22T08:32:11;14.98;;;13.40;;
8480;SDS011;4277;51.354;6.740;2023-06-22T08:34:37;16.05;;;14.48;;
8480;SDS011;4277;51.354;6.740;2023-06-22T08:37:07;15.02;;;13.70;;
8480;SDS011;4277;51.354;6.740;2023-06-22T08:39:33;16.08;;;14.57;;
8480;SDS011;4277;51.354;6.740;2023-06-22T08:41:59;17.17;;;15.50;;
8480;SDS011;4277;51.354;6.740;2023-06-22T08:44:25;16.60;;;15.05;;
8480;SDS011;4277;51.354;6.740;2023-06-22T08:46:51;16.95;;;15.20;;
8480;SDS011;4277;51.354;6.740;2023-06-22T08:49:17;16.33;;;14.82;;
8480;SDS011;4277;51.354;6.740;2023-06-22T08:51:43;15.98;;;14.30;;
8480;SDS011;4277;51.354;6.740;2023-06-22T08:54:10;15.95;;;14.25;;
8480;SDS011;4277;51.354;6.740;2023-06-22T08:56:36;15.23;;;13.10;;
8480;SDS011;4277;51.354;6.740;2023-06-22T08:59:02;15.98;;;14.45;;
8480;SDS011;4277;51.354;6.740;2023-06-22T09:01:28;15.77;;;14.32;;
8480;SDS011;4277;51.354;6.740;2023-06-22T09:03:54;14.40;;;12.93;;
8480;SDS011;4277;51.354;6.740;2023-06-22T09:06:21;17.00;;;13.63;;
8480;SDS011;4277;51.354;6.740;2023-06-22T09:08:47;12.65;;;11.45;;
8480;SDS011;4277;51.354;6.740;2023-06-22T09:11:13;16.10;;;14.43;;
8480;SDS011;4277;51.354;6.740;2023-06-22T09:13:39;16.30;;;14.20;;
8480;SDS011;4277;51.354;6.740;2023-06-22T09:16:05;14.38;;;12.98;;
8480;SDS011;4277;51.354;6.740;2023-06-22T09:18:31;15.70;;;13.45;;
8480;SDS011;4277;51.354;6.740;2023-06-22T09:20:57;14.40;;;13.07;;
8480;SDS011;4277;51.354;6.740;2023-06-22T09:23:23;14.10;;;12.68;;
8480;SDS011;4277;51.354;6.740;2023-06-22T09:25:49;11.73;;;10.55;;
8480;SDS011;4277;51.354;6.740;2023-06-22T09:28:15;15.35;;;13.10;;
8480;SDS011;4277;51.354;6.740;2023-06-22T09:30:42;12.82;;;11.48;;
8480;SDS011;4277;51.354;6.740;2023-06-22T09:33:09;12.63;;;11.35;;
8480;SDS011;4277;51.354;6.740;2023-06-22T09:35:35;14.75;;;13.18;;
8480;SDS011;4277;51.354;6.740;2023-06-22T09:38:01;15.48;;;12.38;;
8480;SDS011;4277;51.354;6.740;2023-06-22T09:40:27;12.90;;;11.70;;
8480;SDS011;4277;51.354;6.740;2023-06-22T09:42:53;12.40;;;11.15;;
8480;SDS011;4277;51.354;6.740;2023-06-22T09:45:19;13.73;;;12.23;;
8480;SDS011;4277;51.354;6.740;2023-06-22T09:47:45;12.75;;;11.45;;
8480;SDS011;4277;51.354;6.740;2023-06-22T09:50:11;13.02;;;11.65;;
8480;SDS011;4277;51.354;6.740;2023-06-22T09:52:37;16.45;;;13.00;;
8480;SDS011;4277;51.354;6.740;2023-06-22T09:55:03;15.38;;;11.95;;
8480;SDS011;4277;51.354;6.740;2023-06-22T09:57:29;13.20;;;11.90;;
8480;SDS011;4277;51.354;6.740;2023-06-22T09:59:55;12.10;;;11.00;;
8480;SDS011;4277;51.354;6.740;2023-06-22T10:02:21;11.73;;;10.63;;
8480;SDS011;4277;51.354;6.740;2023-06-22T10:04:47;12.73;;;11.52;;
8480;SDS011;4277;51.354;6.740;2023-06-22T10:07:13;13.18;;;11.77;;
8480;SDS011;4277;51.354;6.740;2023-06-22T10:09:40;13.02;;;11.80;;
8480;SDS011;4277;51.354;6.740;2023-06-22T10:12:06;12.00;;;10.70;;
8480;SDS011;4277;51.354;6.740;2023-06-22T10:14:32;9.90;;;8.90;;
8480;SDS011;4277;51.354;6.740;2023-06-22T10:16:58;11.43;;;9.95;;
8480;SDS011;4277;51.354;6.740;2023-06-22T10:19:24;9.82;;;8.65;;
8480;SDS011;4277;51.354;6.740;2023-06-22T10:21:50;10.70;;;9.70;;
8480;SDS011;4277;51.354;6.740;2023-06-22T10:24:16;13.95;;;10.57;;
8480;SDS011;4277;51.354;6.740;2023-06-22T10:26:42;9.88;;;8.88;;
8480;SDS011;4277;51.354;6.740;2023-06-22T10:29:08;10.50;;;9.40;;
8480;SDS011;4277;51.354;6.740;2023-06-22T10:31:34;12.68;;;10.20;;
8480;SDS011;4277;51.354;6.740;2023-06-22T10:34:00;11.55;;;10.38;;
8480;SDS011;4277;51.354;6.740;2023-06-22T10:36:26;10.57;;;9.35;;
8480;SDS011;4277;51.354;6.740;2023-06-22T10:38:52;11.57;;;10.57;;
8480;SDS011;4277;51.354;6.740;2023-06-22T10:41:20;13.38;;;10.45;;
8480;SDS011;4277;51.354;6.740;2023-06-22T10:43:46;12.02;;;10.40;;
8480;SDS011;4277;51.354;6.740;2023-06-22T10:46:12;12.23;;;10.98;;
8480;SDS011;4277;51.354;6.740;2023-06-22T10:48:38;10.40;;;9.30;;
8480;SDS011;4277;51.354;6.740;2023-06-22T10:51:04;13.38;;;10.18;;
8480;SDS011;4277;51.354;6.740;2023-06-22T10:53:30;12.57;;;10.25;;
8480;SDS011;4277;51.354;6.740;2023-06-22T10:55:56;11.05;;;9.95;;
8480;SDS011;4277;51.354;6.740;2023-06-22T10:58:22;12.93;;;10.48;;
8480;SDS011;4277;51.354;6.740;2023-06-22T11:00:48;12.98;;;8.90;;
8480;SDS011;4277;51.354;6.740;2023-06-22T11:03:14;12.38;;;11.05;;
8480;SDS011;4277;51.354;6.740;2023-06-22T11:05:40;13.65;;;10.20;;
8480;SDS011;4277;51.354;6.740;2023-06-22T11:08:06;13.10;;;11.48;;
8480;SDS011;4277;51.354;6.740;2023-06-22T11:10:32;13.50;;;12.10;;
8480;SDS011;4277;51.354;6.740;2023-06-22T11:12:58;12.45;;;11.30;;
8480;SDS011;4277;51.354;6.740;2023-06-22T11:15:24;14.10;;;12.73;;
8480;SDS011;4277;51.354;6.740;2023-06-22T11:17:50;18.50;;;14.23;;
8480;SDS011;4277;51.354;6.740;2023-06-22T11:20:16;21.15;;;16.25;;
8480;SDS011;4277;51.354;6.740;2023-06-22T11:22:42;25.15;;;17.67;;
8480;SDS011;4277;51.354;6.740;2023-06-22T11:25:08;28.35;;;18.27;;
8480;SDS011;4277;51.354;6.740;2023-06-22T11:27:36;24.92;;;18.80;;
8480;SDS011;4277;51.354;6.740;2023-06-22T11:30:02;23.85;;;17.90;;
8480;SDS011;4277;51.354;6.740;2023-06-22T11:32:28;24.60;;;18.33;;
8480;SDS011;4277;51.354;6.740;2023-06-22T11:34:54;20.60;;;18.50;;
8480;SDS011;4277;51.354;6.740;2023-06-22T11:37:20;21.33;;;18.63;;
8480;SDS011;4277;51.354;6.740;2023-06-22T11:39:46;23.13;;;19.73;;
8480;SDS011;4277;51.354;6.740;2023-06-22T11:42:12;22.13;;;18.00;;
8480;SDS011;4277;51.354;6.740;2023-06-22T11:44:38;27.05;;;20.08;;
8480;SDS011;4277;51.354;6.740;2023-06-22T11:47:04;23.98;;;19.48;;
8480;SDS011;4277;51.354;6.740;2023-06-22T11:49:31;23.40;;;18.77;;
8480;SDS011;4277;51.354;6.740;2023-06-22T11:51:57;24.63;;;21.55;;
8480;SDS011;4277;51.354;6.740;2023-06-22T11:54:23;27.65;;;22.23;;
8480;SDS011;4277;51.354;6.740;2023-06-22T11:56:49;32.05;;;23.38;;
8480;SDS011;4277;51.354;6.740;2023-06-22T11:59:15;27.45;;;23.88;;
8480;SDS011;4277;51.354;6.740;2023-06-22T12:01:40;30.77;;;24.75;;
8480;SDS011;4277;51.354;6.740;2023-06-22T12:04:06;29.38;;;25.27;;
8480;SDS011;4277;51.354;6.740;2023-06-22T12:06:32;30.33;;;23.65;;
8480;SDS011;4277;51.354;6.740;2023-06-22T12:08:58;33.83;;;25.48;;
8480;SDS011;4277;51.354;6.740;2023-06-22T12:11:24;28.48;;;25.48;;
8480;SDS011;4277;51.354;6.740;2023-06-22T12:13:49;30.45;;;27.25;;
8480;SDS011;4277;51.354;6.740;2023-06-22T12:16:15;29.58;;;26.42;;
8480;SDS011;4277;51.354;6.740;2023-06-22T12:18:40;30.63;;;26.45;;
8480;SDS011;4277;51.354;6.740;2023-06-22T12:21:06;24.70;;;21.83;;
8480;SDS011;4277;51.354;6.740;2023-06-22T12:23:32;29.23;;;25.27;;
8480;SDS011;4277;51.354;6.740;2023-06-22T12:25:57;26.73;;;23.42;;
8480;SDS011;4277;51.354;6.740;2023-06-22T12:28:24;24.45;;;21.95;;
8480;SDS011;4277;51.354;6.740;2023-06-22T12:30:50;26.83;;;23.85;;
8480;SDS011;4277;51.354;6.740;2023-06-22T12:33:15;24.20;;;21.60;;
8480;SDS011;4277;51.354;6.740;2023-06-22T12:35:41;24.50;;;21.80;;
8480;SDS011;4277;51.354;6.740;2023-06-22T12:38:07;23.70;;;21.30;;
8480;SDS011;4277;51.354;6.740;2023-06-22T12:40:34;24.77;;;22.45;;
8480;SDS011;4277;51.354;6.740;2023-06-22T12:43:01;23.83;;;21.23;;
8480;SDS011;4277;51.354;6.740;2023-06-22T12:45:27;24.15;;;21.38;;
8480;SDS011;4277;51.354;6.740;2023-06-22T12:47:56;24.20;;;21.75;;
8480;SDS011;4277;51.354;6.740;2023-06-22T12:50:22;25.10;;;22.40;;
8480;SDS011;4277;51.354;6.740;2023-06-22T12:52:48;23.80;;;21.27;;
8480;SDS011;4277;51.354;6.740;2023-06-22T12:55:14;25.98;;;23.08;;
8480;SDS011;4277;51.354;6.740;2023-06-22T12:57:40;23.15;;;20.95;;
8480;SDS011;4277;51.354;6.740;2023-06-22T13:00:06;24.55;;;22.02;;
8480;SDS011;4277;51.354;6.740;2023-06-22T13:02:34;26.08;;;23.50;;
8480;SDS011;4277;51.354;6.740;2023-06-22T13:05:00;25.00;;;22.45;;
8480;SDS011;4277;51.354;6.740;2023-06-22T13:07:26;26.65;;;23.92;;
8480;SDS011;4277;51.354;6.740;2023-06-22T13:09:52;27.83;;;25.13;;
8480;SDS011;4277;51.354;6.740;2023-06-22T13:12:19;25.23;;;22.73;;
8480;SDS011;4277;51.354;6.740;2023-06-22T13:14:45;28.05;;;25.45;;
8480;SDS011;4277;51.354;6.740;2023-06-22T13:17:12;26.13;;;23.42;;
8480;SDS011;4277;51.354;6.740;2023-06-22T13:19:38;26.73;;;23.92;;
8480;SDS011;4277;51.354;6.740;2023-06-22T13:22:05;27.73;;;25.10;;
8480;SDS011;4277;51.354;6.740;2023-06-22T13:24:32;28.50;;;25.60;;
8480;SDS011;4277;51.354;6.740;2023-06-22T13:26:58;27.42;;;24.85;;
8480;SDS011;4277;51.354;6.740;2023-06-22T13:29:24;26.88;;;24.38;;
8480;SDS011;4277;51.354;6.740;2023-06-22T13:31:49;28.05;;;25.23;;
8480;SDS011;4277;51.354;6.740;2023-06-22T13:34:15;25.98;;;23.42;;
8480;SDS011;4277;51.354;6.740;2023-06-22T13:36:41;27.90;;;25.15;;
8480;SDS011;4277;51.354;6.740;2023-06-22T13:39:07;28.10;;;25.38;;
8480;SDS011;4277;51.354;6.740;2023-06-22T13:41:33;28.48;;;25.70;;
8480;SDS011;4277;51.354;6.740;2023-06-22T13:43:59;27.98;;;25.15;;
8480;SDS011;4277;51.354;6.740;2023-06-22T13:46:25;28.90;;;26.10;;
8480;SDS011;4277;51.354;6.740;2023-06-22T13:48:51;28.33;;;25.52;;
8480;SDS011;4277;51.354;6.740;2023-06-22T13:51:17;26.38;;;23.77;;
8480;SDS011;4277;51.354;6.740;2023-06-22T13:53:43;27.67;;;24.98;;
8480;SDS011;4277;51.354;6.740;2023-06-22T13:56:09;28.17;;;25.10;;
8480;SDS011;4277;51.354;6.740;2023-06-22T13:58:35;26.08;;;23.65;;
8480;SDS011;4277;51.354;6.740;2023-06-22T14:01:01;24.85;;;22.52;;
8480;SDS011;4277;51.354;6.740;2023-06-22T14:03:27;26.40;;;23.90;;
8480;SDS011;4277;51.354;6.740;2023-06-22T14:05:53;27.13;;;24.63;;
8480;SDS011;4277;51.354;6.740;2023-06-22T14:08:20;27.20;;;24.70;;
8480;SDS011;4277;51.354;6.740;2023-06-22T14:10:48;29.05;;;26.27;;
8480;SDS011;4277;51.354;6.740;2023-06-22T14:13:14;27.45;;;24.90;;
8480;SDS011;4277;51.354;6.740;2023-06-22T14:15:40;24.95;;;22.65;;
8480;SDS011;4277;51.354;6.740;2023-06-22T14:18:06;26.98;;;24.33;;
8480;SDS011;4277;51.354;6.740;2023-06-22T14:20:32;27.20;;;24.60;;
8480;SDS011;4277;51.354;6.740;2023-06-22T14:22:58;27.60;;;25.00;;
8480;SDS011;4277;51.354;6.740;2023-06-22T14:25:24;27.95;;;25.25;;
8480;SDS011;4277;51.354;6.740;2023-06-22T14:27:50;26.70;;;24.30;;
8480;SDS011;4277;51.354;6.740;2023-06-22T14:30:16;27.88;;;25.27;;
8480;SDS011;4277;51.354;6.740;2023-06-22T14:32:43;26.52;;;24.02;;
8480;SDS011;4277;51.354;6.740;2023-06-22T14:35:09;28.02;;;25.42;;
8480;SDS011;4277;51.354;6.740;2023-06-22T14:37:35;27.63;;;25.00;;
8480;SDS011;4277;51.354;6.740;2023-06-22T14:40:00;26.23;;;23.67;;
8480;SDS011;4277;51.354;6.740;2023-06-22T14:42:26;27.60;;;24.90;;
8480;SDS011;4277;51.354;6.740;2023-06-22T14:44:55;26.88;;;24.20;;
8480;SDS011;4277;51.354;6.740;2023-06-22T14:47:20;28.65;;;26.05;;
8480;SDS011;4277;51.354;6.740;2023-06-22T14:49:47;27.70;;;25.17;;
8480;SDS011;4277;51.354;6.740;2023-06-22T14:52:13;28.50;;;25.70;;
8480;SDS011;4277;51.354;6.740;2023-06-22T14:54:39;25.85;;;23.40;;